Hosanger — 9VAW8 — position and weather

sailwx.info

Track history (hours):
 
Tides and Currents Weather Stations Pressure Air Temp Water Temp Dewpoint Dewpoint Depression Visibility Wind Speed Wind Dir Waves Ship Positions

Hosanger

Last reported at 2017-Sep-22 01:53 UTC. Time now 2017-Oct-17 22:34 UTC.
Position N 27°47' W 016°27'.
Warning: this ship's position is 25 days out of date.

Length 213 m; draft 7.4 m.

Type: Cargo ship. MMSI: 563495000.

Date/timePositionNaut miles runAvg speedWind from/ knotsBaromVisibWave heightAir tempDewpointWater temp
2017-Sep-22 01:53N 27°47' W 016°27'1116.0
2017-Sep-22 01:10N 27°58' W 016°21'415.8
2017-Sep-22 00:56N 28°01' W 016°20'815.9
2017-Sep-22 00:28N 28°07' W 016°14'715.8
2017-Sep-22 00:00N 28°12' W 016°09'816.0
2017-Sep-21 23:30N 28°18' W 016°03'816.0
2017-Sep-21 23:00N 28°24' W 015°57'816.1
2017-Sep-21 22:30N 28°31' W 015°51'815.9
2017-Sep-21 22:00N 28°37' W 015°46'815.4
2017-Sep-21 21:30N 28°44' W 015°43'815.7
2017-Sep-21 21:00N 28°52' W 015°43'815.6
2017-Sep-21 20:28N 29°00' W 015°42'49815.8
2017-Sep-20 12:53N 37°17' W 014°52'5715.7
2017-Sep-20 09:14N 38°14' W 014°46'5815.8
2017-Sep-20 05:32N 39°12' W 014°40'415.7
2017-Sep-20 05:17N 39°16' W 014°39'515.7
2017-Sep-20 05:00N 39°20' W 014°39'815.6
2017-Sep-20 04:29N 39°28' W 014°38'67414.7
2017-Sep-18 06:39N 48°48' W 005°55'516.5
2017-Sep-18 06:20N 48°52' W 005°50'1015.7
2017-Sep-18 05:40N 48°58' W 005°37'315.4
2017-Sep-18 05:30N 48°59' W 005°34'815.1
2017-Sep-18 04:57N 49°04' W 005°23'614.6
2017-Sep-18 04:30N 49°07' W 005°14'6213.5
2017-Sep-17 23:57N 49°38' W 003°53'715.0
2017-Sep-17 23:30N 49°41' W 003°44'815.4
2017-Sep-17 23:00N 49°45' W 003°34'815.5
2017-Sep-17 22:30N 49°49' W 003°24'815.5
2017-Sep-17 22:00N 49°53' W 003°13'815.3
2017-Sep-17 21:30N 49°57' W 003°03'714.9
2017-Sep-17 21:00N 49°59' W 002°52'714.4
2017-Sep-17 20:30N 50°01' W 002°41'2212.9
2017-Sep-17 18:49N 50°07' W 002°08'411.6
2017-Sep-17 18:31N 50°08' W 002°03'611.2
2017-Sep-17 18:00N 50°09' W 001°54'611.1
2017-Sep-17 17:31N 50°11' W 001°46'611.2
2017-Sep-17 17:01N 50°12' W 001°37'611.6
2017-Sep-17 16:30N 50°14' W 001°29'612.3
2017-Sep-17 16:00N 50°16' W 001°20'4014.7
2017-Sep-17 13:17N 50°27' W 000°19'415.7
2017-Sep-17 13:00N 50°28' W 000°13'815.7
2017-Sep-17 12:30N 50°31' W 000°01'815.6
2017-Sep-17 12:00N 50°32' E 000°11'815.4
2017-Sep-17 11:30N 50°34' E 000°23'715.0
2017-Sep-17 11:00N 50°36' E 000°34'714.4
2017-Sep-17 10:30N 50°40' E 000°44'714.1
2017-Sep-17 10:00N 50°44' E 000°52'713.6
2017-Sep-17 09:31N 50°49' E 001°00'713.2
2017-Sep-17 09:00N 50°53' E 001°08'712.9
2017-Sep-17 08:30N 50°58' E 001°16'612.8
2017-Sep-17 08:00N 51°02' E 001°23'714.0
2017-Sep-17 07:30N 51°06' E 001°32'714.7
2017-Sep-17 07:00N 51°11' E 001°41'815.4
2017-Sep-17 06:30N 51°17' E 001°49'815.9
2017-Sep-17 06:00N 51°24' E 001°55'815.9
2017-Sep-17 05:30N 51°30' E 002°03'815.7
2017-Sep-17 05:00N 51°36' E 002°11'815.6
2017-Sep-17 04:30N 51°42' E 002°20'10413.6
2017-Sep-16 20:49N 53°02' E 004°08'414.5
2017-Sep-16 20:30N 53°05' E 004°14'714.8
2017-Sep-16 20:00N 53°10' E 004°23'814.8
2017-Sep-16 19:30N 53°17' E 004°29'715.0
2017-Sep-16 19:00N 53°23' E 004°34'713.9
2017-Sep-16 18:29N 53°29' E 004°41'714.2
2017-Sep-16 18:00N 53°32' E 004°52'713.8
2017-Sep-16 17:30N 53°34' E 005°02'713.1
2017-Sep-16 16:59N 53°37' E 005°13'4510.9
2017-Sep-16 12:53N 53°37' E 006°28'713.4
2017-Sep-16 12:21N 53°34' E 006°39'514.3
2017-Sep-16 12:00N 53°31' E 006°46'714.9
2017-Sep-16 11:30N 53°26' E 006°55'713.9
2017-Sep-16 11:00N 53°20' E 006°60'611.4
2017-Sep-16 10:30N 53°20' E 007°09'1 0.1
2017-Sep-16 07:04N 53°20' E 007°10'0 0.0
2017-Sep-16 06:58N 53°20' E 007°10'0 0.0
2017-Sep-16 06:28N 53°20' E 007°10'0 0.0
2017-Sep-16 05:58N 53°20' E 007°10'0 0.0
2017-Sep-16 05:28N 53°20' E 007°10'0 0.0
2017-Sep-16 04:46N 53°20' E 007°10'0 0.0
2017-Sep-16 04:28N 53°20' E 007°10'0 0.0
2017-Sep-16 03:52N 53°20' E 007°10'0 0.0
2017-Sep-16 03:25N 53°20' E 007°10'0 0.0
2017-Sep-15 16:55N 53°20' E 007°10'0 0.0
2017-Sep-15 15:13N 53°20' E 007°10'0 0.0
2017-Sep-15 14:37N 53°20' E 007°10'0 0.0
2017-Sep-15 12:16N 53°20' E 007°10'0 0.0
2017-Sep-15 12:01N 53°20' E 007°10'0 0.0
2017-Sep-15 11:28N 53°20' E 007°10'0 0.0
2017-Sep-15 11:00N 53°20' E 007°10'0 0.0
2017-Sep-15 10:30N 53°20' E 007°10'0 0.0
2017-Sep-15 09:45N 53°20' E 007°10'0 0.0
2017-Sep-15 09:27N 53°20' E 007°10'0 0.0
2017-Sep-15 08:51N 53°20' E 007°10'0 0.0
2017-Sep-15 08:15N 53°20' E 007°10'0 0.0
2017-Sep-14 17:45N 53°20' E 007°10'0 0.0
2017-Sep-14 17:24N 53°20' E 007°10'0 0.0
2017-Sep-14 17:00N 53°20' E 007°10'0 0.0
2017-Sep-14 16:30N 53°20' E 007°10'0 0.0
2017-Sep-14 16:00N 53°20' E 007°10'0 0.0
2017-Sep-14 15:30N 53°20' E 007°10'0 0.0
2017-Sep-14 15:00N 53°20' E 007°10'0 0.0
2017-Sep-14 14:12N 53°20' E 007°10'0 0.0
2017-Sep-14 13:48N 53°20' E 007°10'0 0.0
2017-Sep-14 13:30N 53°20' E 007°10'0 0.0
2017-Sep-14 13:00N 53°20' E 007°10'0 0.0
2017-Sep-14 12:30N 53°20' E 007°10'0 0.0
2017-Sep-14 12:00N 53°20' E 007°10'0 0.0
2017-Sep-14 11:30N 53°20' E 007°10'0 0.0
2017-Sep-14 10:30N 53°20' E 007°10'0 0.0
2017-Sep-14 09:51N 53°20' E 007°10'0 0.0
2017-Sep-14 04:06N 53°20' E 007°10'0 0.0
2017-Sep-14 03:21N 53°20' E 007°10'0 0.0
2017-Sep-14 03:00N 53°20' E 007°10'0 0.0
2017-Sep-14 02:18N 53°20' E 007°10'0 0.0
2017-Sep-14 01:39N 53°20' E 007°10'0 0.0
2017-Sep-14 01:24N 53°20' E 007°10'0 0.0
2017-Sep-13 22:51N 53°20' E 007°10'0 0.0
2017-Sep-13 22:30N 53°20' E 007°10'0 0.0
2017-Sep-13 21:57N 53°20' E 007°10'0 0.0
2017-Sep-13 21:27N 53°20' E 007°10'0 0.0
2017-Sep-13 21:00N 53°20' E 007°10'0 0.0
2017-Sep-13 20:23N 53°20' E 007°10'0 0.0
2017-Sep-13 19:56N 53°20' E 007°10'0 0.0
2017-Sep-13 19:26N 53°20' E 007°10'0 0.0
2017-Sep-13 18:53N 53°20' E 007°10'0 0.0
2017-Sep-13 18:29N 53°20' E 007°10'0 0.0
2017-Sep-13 17:59N 53°20' E 007°10'0 0.0
2017-Sep-13 17:29N 53°20' E 007°10'0 0.0
2017-Sep-13 16:59N 53°20' E 007°10'0 0.0
2017-Sep-13 16:29N 53°20' E 007°10'0 0.0
2017-Sep-13 15:59N 53°20' E 007°10'0 0.0
2017-Sep-13 15:29N 53°20' E 007°10'0 0.0
2017-Sep-13 11:56N 53°20' E 007°10'0 0.0
2017-Sep-13 11:02N 53°20' E 007°10'0 0.0
2017-Sep-13 10:56N 53°20' E 007°10'0 0.0
2017-Sep-13 10:11N 53°20' E 007°10'0 0.0
2017-Sep-13 09:53N 53°20' E 007°10'0 0.0
2017-Sep-13 02:52N 53°20' E 007°10'1 2.8
2017-Sep-13 02:30N 53°20' E 007°09'4 7.8
2017-Sep-13 02:00N 53°19' E 007°02'510.2
2017-Sep-13 01:30N 53°24' E 006°57'5 9.8
2017-Sep-13 01:01N 53°27' E 006°52'5 9.2
2017-Sep-13 00:28N 53°31' E 006°46'22 8.2
2017-Sep-12 21:44N 53°39' E 006°11'1 1.8
2017-Sep-12 21:25N 53°39' E 006°10'28 7.6
2017-Sep-12 17:44N 53°33' E 005°24'412.0
2017-Sep-12 17:24N 53°32' E 005°18'512.3
2017-Sep-12 17:00N 53°30' E 005°10'612.3
2017-Sep-12 16:30N 53°28' E 005°00'612.5
2017-Sep-12 16:00N 53°26' E 004°50'611.7
2017-Sep-12 15:30N 53°23' E 004°42'611.9
2017-Sep-12 15:00N 53°18' E 004°38'611.8
2017-Sep-12 14:30N 53°12' E 004°34'711.7
2017-Sep-12 13:56N 53°07' E 004°29'511.9
2017-Sep-12 13:30N 53°02' E 004°25'611.9
2017-Sep-12 13:00N 52°57' E 004°20'611.9
2017-Sep-12 12:30N 52°51' E 004°16'611.8
2017-Sep-12 12:01N 52°46' E 004°11'612.2
2017-Sep-12 11:30N 52°42' E 004°04'612.4
2017-Sep-12 11:00N 52°37' E 003°57'612.6
2017-Sep-12 10:30N 52°33' E 003°50'713.1
2017-Sep-12 09:57N 52°28' E 003°41'713.3
2017-Sep-12 09:27N 52°23' E 003°33'613.5
2017-Sep-12 08:58N 52°19' E 003°26'4713.2
2017-Sep-12 05:26N 51°40' E 002°43'613.4
2017-Sep-12 05:00N 51°34' E 002°43'612.8
2017-Sep-12 04:30N 51°28' E 002°42'612.4
2017-Sep-12 04:00N 51°22' E 002°43'510.2
2017-Sep-12 03:30N 51°22' E 002°51'611.7
2017-Sep-12 03:00N 51°23' E 002°60'611.1
2017-Sep-12 02:31N 51°24' E 003°09'611.6
2017-Sep-12 02:00N 51°25' E 003°18'  
Track history (hours):
 
Tides and Currents Weather Stations Pressure Air Temp Water Temp Dewpoint Dewpoint Depression Visibility Wind Speed Wind Dir Waves Ship Positions

Hosanger

Last reported at 2017-Sep-22 01:53 UTC. Time now 2017-Oct-17 22:34 UTC.
Position N 27°47' W 016°27'.
Warning: this ship's position is 25 days out of date.

Length 213 m; draft 7.4 m.

Type: Cargo ship. MMSI: 563495000.

Date/timePositionNaut miles runAvg speedWind from/ knotsBaromVisibWave heightAir tempDewpointWater temp
2017-Sep-22 01:53N 27°47' W 016°27'1116.0
2017-Sep-22 01:10N 27°58' W 016°21'415.8
2017-Sep-22 00:56N 28°01' W 016°20'815.9
2017-Sep-22 00:28N 28°07' W 016°14'715.8
2017-Sep-22 00:00N 28°12' W 016°09'816.0
2017-Sep-21 23:30N 28°18' W 016°03'816.0
2017-Sep-21 23:00N 28°24' W 015°57'816.1
2017-Sep-21 22:30N 28°31' W 015°51'815.9
2017-Sep-21 22:00N 28°37' W 015°46'815.4
2017-Sep-21 21:30N 28°44' W 015°43'815.7
2017-Sep-21 21:00N 28°52' W 015°43'815.6
2017-Sep-21 20:28N 29°00' W 015°42'49815.8
2017-Sep-20 12:53N 37°17' W 014°52'5715.7
2017-Sep-20 09:14N 38°14' W 014°46'5815.8
2017-Sep-20 05:32N 39°12' W 014°40'415.7
2017-Sep-20 05:17N 39°16' W 014°39'515.7
2017-Sep-20 05:00N 39°20' W 014°39'815.6
2017-Sep-20 04:29N 39°28' W 014°38'67414.7
2017-Sep-18 06:39N 48°48' W 005°55'516.5
2017-Sep-18 06:20N 48°52' W 005°50'1015.7
2017-Sep-18 05:40N 48°58' W 005°37'315.4
2017-Sep-18 05:30N 48°59' W 005°34'815.1
2017-Sep-18 04:57N 49°04' W 005°23'614.6
2017-Sep-18 04:30N 49°07' W 005°14'6213.5
2017-Sep-17 23:57N 49°38' W 003°53'715.0
2017-Sep-17 23:30N 49°41' W 003°44'815.4
2017-Sep-17 23:00N 49°45' W 003°34'815.5
2017-Sep-17 22:30N 49°49' W 003°24'815.5
2017-Sep-17 22:00N 49°53' W 003°13'815.3
2017-Sep-17 21:30N 49°57' W 003°03'714.9
2017-Sep-17 21:00N 49°59' W 002°52'714.4
2017-Sep-17 20:30N 50°01' W 002°41'2212.9
2017-Sep-17 18:49N 50°07' W 002°08'411.6
2017-Sep-17 18:31N 50°08' W 002°03'611.2
2017-Sep-17 18:00N 50°09' W 001°54'611.1
2017-Sep-17 17:31N 50°11' W 001°46'611.2
2017-Sep-17 17:01N 50°12' W 001°37'611.6
2017-Sep-17 16:30N 50°14' W 001°29'612.3
2017-Sep-17 16:00N 50°16' W 001°20'4014.7
2017-Sep-17 13:17N 50°27' W 000°19'415.7
2017-Sep-17 13:00N 50°28' W 000°13'815.7
2017-Sep-17 12:30N 50°31' W 000°01'815.6
2017-Sep-17 12:00N 50°32' E 000°11'815.4
2017-Sep-17 11:30N 50°34' E 000°23'715.0
2017-Sep-17 11:00N 50°36' E 000°34'714.4
2017-Sep-17 10:30N 50°40' E 000°44'714.1
2017-Sep-17 10:00N 50°44' E 000°52'713.6
2017-Sep-17 09:31N 50°49' E 001°00'713.2
2017-Sep-17 09:00N 50°53' E 001°08'712.9
2017-Sep-17 08:30N 50°58' E 001°16'612.8
2017-Sep-17 08:00N 51°02' E 001°23'714.0
2017-Sep-17 07:30N 51°06' E 001°32'714.7
2017-Sep-17 07:00N 51°11' E 001°41'815.4
2017-Sep-17 06:30N 51°17' E 001°49'815.9
2017-Sep-17 06:00N 51°24' E 001°55'815.9
2017-Sep-17 05:30N 51°30' E 002°03'815.7
2017-Sep-17 05:00N 51°36' E 002°11'815.6
2017-Sep-17 04:30N 51°42' E 002°20'10413.6
2017-Sep-16 20:49N 53°02' E 004°08'414.5
2017-Sep-16 20:30N 53°05' E 004°14'714.8
2017-Sep-16 20:00N 53°10' E 004°23'814.8
2017-Sep-16 19:30N 53°17' E 004°29'715.0
2017-Sep-16 19:00N 53°23' E 004°34'713.9
2017-Sep-16 18:29N 53°29' E 004°41'714.2
2017-Sep-16 18:00N 53°32' E 004°52'713.8
2017-Sep-16 17:30N 53°34' E 005°02'713.1
2017-Sep-16 16:59N 53°37' E 005°13'4510.9
2017-Sep-16 12:53N 53°37' E 006°28'713.4
2017-Sep-16 12:21N 53°34' E 006°39'514.3
2017-Sep-16 12:00N 53°31' E 006°46'714.9
2017-Sep-16 11:30N 53°26' E 006°55'713.9
2017-Sep-16 11:00N 53°20' E 006°60'611.4
2017-Sep-16 10:30N 53°20' E 007°09'1 0.1
2017-Sep-16 07:04N 53°20' E 007°10'0 0.0
2017-Sep-16 06:58N 53°20' E 007°10'0 0.0
2017-Sep-16 06:28N 53°20' E 007°10'0 0.0
2017-Sep-16 05:58N 53°20' E 007°10'0 0.0
2017-Sep-16 05:28N 53°20' E 007°10'0 0.0
2017-Sep-16 04:46N 53°20' E 007°10'0 0.0
2017-Sep-16 04:28N 53°20' E 007°10'0 0.0
2017-Sep-16 03:52N 53°20' E 007°10'0 0.0
2017-Sep-16 03:25N 53°20' E 007°10'0 0.0
2017-Sep-15 16:55N 53°20' E 007°10'0 0.0
2017-Sep-15 15:13N 53°20' E 007°10'0 0.0
2017-Sep-15 14:37N 53°20' E 007°10'0 0.0
2017-Sep-15 12:16N 53°20' E 007°10'0 0.0
2017-Sep-15 12:01N 53°20' E 007°10'0 0.0
2017-Sep-15 11:28N 53°20' E 007°10'0 0.0
2017-Sep-15 11:00N 53°20' E 007°10'0 0.0
2017-Sep-15 10:30N 53°20' E 007°10'0 0.0
2017-Sep-15 09:45N 53°20' E 007°10'0 0.0
2017-Sep-15 09:27N 53°20' E 007°10'0 0.0
2017-Sep-15 08:51N 53°20' E 007°10'0 0.0
2017-Sep-15 08:15N 53°20' E 007°10'0 0.0
2017-Sep-14 17:45N 53°20' E 007°10'0 0.0
2017-Sep-14 17:24N 53°20' E 007°10'0 0.0
2017-Sep-14 17:00N 53°20' E 007°10'0 0.0
2017-Sep-14 16:30N 53°20' E 007°10'0 0.0
2017-Sep-14 16:00N 53°20' E 007°10'0 0.0
2017-Sep-14 15:30N 53°20' E 007°10'0 0.0
2017-Sep-14 15:00N 53°20' E 007°10'0 0.0
2017-Sep-14 14:12N 53°20' E 007°10'0 0.0
2017-Sep-14 13:48N 53°20' E 007°10'0 0.0
2017-Sep-14 13:30N 53°20' E 007°10'0 0.0
2017-Sep-14 13:00N 53°20' E 007°10'0 0.0
2017-Sep-14 12:30N 53°20' E 007°10'0 0.0
2017-Sep-14 12:00N 53°20' E 007°10'0 0.0
2017-Sep-14 11:30N 53°20' E 007°10'0 0.0
2017-Sep-14 10:30N 53°20' E 007°10'0 0.0
2017-Sep-14 09:51N 53°20' E 007°10'0 0.0
2017-Sep-14 04:06N 53°20' E 007°10'0 0.0
2017-Sep-14 03:21N 53°20' E 007°10'0 0.0
2017-Sep-14 03:00N 53°20' E 007°10'0 0.0
2017-Sep-14 02:18N 53°20' E 007°10'0 0.0
2017-Sep-14 01:39N 53°20' E 007°10'0 0.0
2017-Sep-14 01:24N 53°20' E 007°10'0 0.0
2017-Sep-13 22:51N 53°20' E 007°10'0 0.0
2017-Sep-13 22:30N 53°20' E 007°10'0 0.0
2017-Sep-13 21:57N 53°20' E 007°10'0 0.0
2017-Sep-13 21:27N 53°20' E 007°10'0 0.0
2017-Sep-13 21:00N 53°20' E 007°10'0 0.0
2017-Sep-13 20:23N 53°20' E 007°10'0 0.0
2017-Sep-13 19:56N 53°20' E 007°10'0 0.0
2017-Sep-13 19:26N 53°20' E 007°10'0 0.0
2017-Sep-13 18:53N 53°20' E 007°10'0 0.0
2017-Sep-13 18:29N 53°20' E 007°10'0 0.0
2017-Sep-13 17:59N 53°20' E 007°10'0 0.0
2017-Sep-13 17:29N 53°20' E 007°10'0 0.0
2017-Sep-13 16:59N 53°20' E 007°10'0 0.0
2017-Sep-13 16:29N 53°20' E 007°10'0 0.0
2017-Sep-13 15:59N 53°20' E 007°10'0 0.0
2017-Sep-13 15:29N 53°20' E 007°10'0 0.0
2017-Sep-13 11:56N 53°20' E 007°10'0 0.0
2017-Sep-13 11:02N 53°20' E 007°10'0 0.0
2017-Sep-13 10:56N 53°20' E 007°10'0 0.0
2017-Sep-13 10:11N 53°20' E 007°10'0 0.0
2017-Sep-13 09:53N 53°20' E 007°10'0 0.0
2017-Sep-13 02:52N 53°20' E 007°10'1 2.8
2017-Sep-13 02:30N 53°20' E 007°09'4 7.8
2017-Sep-13 02:00N 53°19' E 007°02'510.2
2017-Sep-13 01:30N 53°24' E 006°57'5 9.8
2017-Sep-13 01:01N 53°27' E 006°52'5 9.2
2017-Sep-13 00:28N 53°31' E 006°46'22 8.2
2017-Sep-12 21:44N 53°39' E 006°11'1 1.8
2017-Sep-12 21:25N 53°39' E 006°10'28 7.6
2017-Sep-12 17:44N 53°33' E 005°24'412.0
2017-Sep-12 17:24N 53°32' E 005°18'512.3
2017-Sep-12 17:00N 53°30' E 005°10'612.3
2017-Sep-12 16:30N 53°28' E 005°00'612.5
2017-Sep-12 16:00N 53°26' E 004°50'611.7
2017-Sep-12 15:30N 53°23' E 004°42'611.9
2017-Sep-12 15:00N 53°18' E 004°38'611.8
2017-Sep-12 14:30N 53°12' E 004°34'711.7
2017-Sep-12 13:56N 53°07' E 004°29'511.9
2017-Sep-12 13:30N 53°02' E 004°25'611.9
2017-Sep-12 13:00N 52°57' E 004°20'611.9
2017-Sep-12 12:30N 52°51' E 004°16'611.8
2017-Sep-12 12:01N 52°46' E 004°11'612.2
2017-Sep-12 11:30N 52°42' E 004°04'612.4
2017-Sep-12 11:00N 52°37' E 003°57'612.6
2017-Sep-12 10:30N 52°33' E 003°50'713.1
2017-Sep-12 09:57N 52°28' E 003°41'713.3
2017-Sep-12 09:27N 52°23' E 003°33'613.5
2017-Sep-12 08:58N 52°19' E 003°26'4713.2
2017-Sep-12 05:26N 51°40' E 002°43'613.4
2017-Sep-12 05:00N 51°34' E 002°43'612.8
2017-Sep-12 04:30N 51°28' E 002°42'612.4
2017-Sep-12 04:00N 51°22' E 002°43'510.2
2017-Sep-12 03:30N 51°22' E 002°51'611.7
2017-Sep-12 03:00N 51°23' E 002°60'611.1
2017-Sep-12 02:31N 51°24' E 003°09'611.6
2017-Sep-12 02:00N 51°25' E 003°18'  

Dump ship's entire track history